createdAt,value
2022-09-07T00:01:31.620Z,10.77
2022-09-07T00:04:01.073Z,8.82
2022-09-07T00:06:29.512Z,10.60
2022-09-07T00:08:58.509Z,8.25
2022-09-07T00:11:26.549Z,7.43
2022-09-07T00:13:55.049Z,8.85
2022-09-07T00:16:28.884Z,7.68
2022-09-07T00:18:59.590Z,10.00
2022-09-07T00:21:33.789Z,6.82
2022-09-07T00:24:02.139Z,8.85
2022-09-07T00:26:31.621Z,7.00
2022-09-07T00:29:02.797Z,7.55
2022-09-07T00:31:32.250Z,7.35
2022-09-07T00:34:02.247Z,8.25
2022-09-07T00:36:31.598Z,9.25
2022-09-07T00:38:59.564Z,9.70
2022-09-07T00:41:27.591Z,12.95
2022-09-07T00:43:58.765Z,13.88
2022-09-07T00:46:29.908Z,17.35
2022-09-07T00:49:08.132Z,8.80
2022-09-07T00:51:46.094Z,9.07
2022-09-07T00:54:20.493Z,9.38
2022-09-07T00:56:52.882Z,7.63
2022-09-07T00:59:27.292Z,9.18
2022-09-07T01:01:56.197Z,7.03
2022-09-07T01:04:25.857Z,7.82
2022-09-07T01:06:56.729Z,8.23
2022-09-07T01:09:28.765Z,8.68
2022-09-07T01:11:59.992Z,9.35
2022-09-07T01:14:33.329Z,8.30
2022-09-07T01:17:15.588Z,6.47
2022-09-07T01:20:42.102Z,7.50
2022-09-07T01:23:51.918Z,9.07
2022-09-07T01:27:01.717Z,8.40
2022-09-07T01:29:45.972Z,8.23
2022-09-07T01:32:42.210Z,9.77
2022-09-07T01:35:22.003Z,9.32
2022-09-07T01:38:02.291Z,12.02
2022-09-07T01:40:43.064Z,7.00
2022-09-07T01:43:19.792Z,7.95
2022-09-07T01:45:57.034Z,9.00
2022-09-07T01:48:27.186Z,8.35
2022-09-07T01:51:02.597Z,9.75
2022-09-07T01:53:41.540Z,10.73
2022-09-07T01:56:16.737Z,11.70
2022-09-07T02:01:34.529Z,12.80
2022-09-07T02:04:12.005Z,13.50
2022-09-07T02:06:47.095Z,11.98
2022-09-07T02:09:27.990Z,11.55
2022-09-07T02:12:02.948Z,12.38
2022-09-07T02:14:38.143Z,10.10
2022-09-07T02:19:52.767Z,11.00
2022-09-07T02:22:32.089Z,10.93
2022-09-07T02:25:06.303Z,8.82
2022-09-07T02:27:41.558Z,7.90
2022-09-07T02:32:40.830Z,8.10
2022-09-07T02:35:11.314Z,9.68
2022-09-07T02:37:42.652Z,10.60
2022-09-07T02:40:12.729Z,9.93
2022-09-07T02:42:42.763Z,9.77
2022-09-07T02:45:15.441Z,10.13
2022-09-07T02:48:06.385Z,7.65
2022-09-07T02:51:00.570Z,7.82
2022-09-07T02:53:52.701Z,6.70
2022-09-07T02:56:44.314Z,5.90
2022-09-07T02:59:27.256Z,5.63
2022-09-07T03:02:06.106Z,6.85
2022-09-07T03:04:46.657Z,8.57
2022-09-07T03:07:21.272Z,7.57
2022-09-07T03:09:54.930Z,7.22
2022-09-07T03:12:22.922Z,9.25
2022-09-07T03:14:53.086Z,8.93
2022-09-07T03:17:21.181Z,9.50
2022-09-07T03:19:50.446Z,11.68
2022-09-07T03:22:19.502Z,10.95
2022-09-07T03:24:48.362Z,13.88
2022-09-07T03:27:16.822Z,13.05
2022-09-07T03:29:46.864Z,12.30
2022-09-07T03:32:15.243Z,13.85
2022-09-07T03:34:43.246Z,13.25
2022-09-07T03:37:12.560Z,14.38
2022-09-07T03:39:40.806Z,13.45
2022-09-07T03:42:08.918Z,13.73
2022-09-07T03:44:36.865Z,17.58
2022-09-07T03:47:06.510Z,14.77
2022-09-07T03:49:34.985Z,14.00
2022-09-07T03:52:04.542Z,13.38
2022-09-07T03:54:37.753Z,14.32
2022-09-07T03:57:08.257Z,16.42
2022-09-07T03:59:39.468Z,16.08
2022-09-07T04:02:07.607Z,19.95
2022-09-07T04:08:07.105Z,22.58
2022-09-07T04:10:39.526Z,19.98
2022-09-07T04:13:08.351Z,30.55
2022-09-07T04:15:37.169Z,26.02
2022-09-07T04:18:05.192Z,21.13
2022-09-07T04:20:33.615Z,24.85
2022-09-07T04:23:01.530Z,23.80
2022-09-07T04:25:30.219Z,116.60
2022-09-07T04:28:00.393Z,26.75
2022-09-07T04:30:28.547Z,27.15
2022-09-07T04:32:56.625Z,29.77
2022-09-07T04:35:24.709Z,36.00
2022-09-07T04:37:52.709Z,31.88
2022-09-07T04:40:22.093Z,43.17
2022-09-07T04:42:51.129Z,35.35
2022-09-07T04:45:22.117Z,40.20
2022-09-07T04:47:50.862Z,38.03
2022-09-07T04:50:19.357Z,46.65
2022-09-07T04:52:49.111Z,38.42
2022-09-07T04:55:17.395Z,41.50
2022-09-07T04:57:45.389Z,35.65
2022-09-07T05:00:14.734Z,38.83
2022-09-07T05:02:45.269Z,29.85
2022-09-07T05:05:13.730Z,31.25
2022-09-07T05:07:43.001Z,35.13
2022-09-07T05:10:12.157Z,53.03
2022-09-07T05:12:40.365Z,31.85
2022-09-07T05:15:13.623Z,43.35
2022-09-07T05:17:42.905Z,39.25
2022-09-07T05:20:10.973Z,59.45
2022-09-07T05:22:41.086Z,66.82
2022-09-07T05:25:10.777Z,47.67
2022-09-07T05:27:40.134Z,49.40
2022-09-07T05:33:05.155Z,44.53
2022-09-07T05:35:33.117Z,29.15
2022-09-07T05:38:02.441Z,26.92
2022-09-07T05:40:36.176Z,29.45
2022-09-07T05:43:06.448Z,27.88
2022-09-07T05:45:37.377Z,31.80
2022-09-07T05:48:07.725Z,27.88
2022-09-07T05:50:35.934Z,31.48
2022-09-07T05:53:05.033Z,31.33
2022-09-07T05:55:33.521Z,39.42
2022-09-07T05:58:04.054Z,34.17
2022-09-07T06:00:32.017Z,31.33
2022-09-07T06:03:00.176Z,33.28
2022-09-07T06:05:33.564Z,35.03
2022-09-07T06:08:01.766Z,32.08
2022-09-07T06:10:49.945Z,25.92
2022-09-07T06:13:18.017Z,24.80
2022-09-07T06:15:46.088Z,33.00
2022-09-07T06:18:15.048Z,26.75
2022-09-07T06:20:44.384Z,28.55
2022-09-07T06:23:12.317Z,29.17
2022-09-07T06:25:50.202Z,22.83
2022-09-07T06:28:18.247Z,27.08
2022-09-07T06:30:46.595Z,23.38
2022-09-07T06:33:18.085Z,25.38
2022-09-07T06:35:57.743Z,26.80
2022-09-07T06:38:31.860Z,25.10
2022-09-07T06:43:53.596Z,25.40
2022-09-07T06:49:10.927Z,25.83
2022-09-07T06:51:40.297Z,24.50
2022-09-07T06:56:57.649Z,21.88
2022-09-07T06:59:25.670Z,20.98
2022-09-07T07:01:53.624Z,22.55
2022-09-07T07:04:21.964Z,23.10
2022-09-07T07:06:51.933Z,23.23
2022-09-07T07:09:19.898Z,28.35
2022-09-07T07:11:48.240Z,27.50
2022-09-07T07:14:17.864Z,32.72
2022-09-07T07:16:46.804Z,35.13
2022-09-07T07:19:15.861Z,36.90
2022-09-07T07:22:07.749Z,32.55
2022-09-07T07:24:33.397Z,40.90
2022-09-07T07:27:03.422Z,46.05
2022-09-07T07:29:31.716Z,48.20
2022-09-07T07:32:00.731Z,45.70
2022-09-07T07:34:29.845Z,39.45
2022-09-07T07:36:58.036Z,42.20
2022-09-07T07:42:16.038Z,44.03
2022-09-07T07:44:44.057Z,42.65
2022-09-07T07:47:12.446Z,47.58
2022-09-07T07:49:40.300Z,45.47
2022-09-07T07:54:56.492Z,42.88
2022-09-07T07:57:26.380Z,36.38
2022-09-07T07:59:55.871Z,34.03
2022-09-07T08:02:24.097Z,33.40
2022-09-07T08:04:52.922Z,36.15
2022-09-07T08:07:22.348Z,31.65
2022-09-07T08:09:50.943Z,27.67
2022-09-07T08:12:20.497Z,27.83
2022-09-07T08:14:49.887Z,27.58
2022-09-07T08:17:18.305Z,28.90
2022-09-07T08:19:46.211Z,29.73
2022-09-07T08:22:14.108Z,25.83
2022-09-07T08:24:43.429Z,25.98
2022-09-07T08:27:11.322Z,26.30
2022-09-07T08:29:39.112Z,25.27
2022-09-07T08:32:08.350Z,24.92
2022-09-07T08:34:38.291Z,24.42
2022-09-07T08:37:06.247Z,22.48
2022-09-07T08:39:36.694Z,22.67
2022-09-07T08:42:34.312Z,24.48
2022-09-07T08:45:09.472Z,24.80
2022-09-07T08:47:46.789Z,24.25
2022-09-07T08:50:21.947Z,25.95
2022-09-07T08:52:56.339Z,23.83
2022-09-07T08:55:31.181Z,24.73
2022-09-07T08:58:26.690Z,24.35
2022-09-07T09:06:53.464Z,22.98
2022-09-07T09:09:40.817Z,24.65
2022-09-07T09:12:26.732Z,21.98
2022-09-07T09:15:15.715Z,20.50
2022-09-07T09:17:54.763Z,19.67
2022-09-07T09:20:31.645Z,19.23
2022-09-07T09:23:10.795Z,16.88
2022-09-07T09:25:45.756Z,17.45
2022-09-07T09:30:42.259Z,16.85
2022-09-07T09:33:18.765Z,17.25
2022-09-07T09:35:51.534Z,16.30
2022-09-07T09:38:39.888Z,16.60
2022-09-07T09:41:11.257Z,16.20
2022-09-07T09:43:48.246Z,15.07
2022-09-07T09:46:24.627Z,13.00
2022-09-07T09:48:57.181Z,11.38
2022-09-07T09:54:27.111Z,12.60
2022-09-07T09:56:55.145Z,11.95
2022-09-07T10:05:30.467Z,9.77
2022-09-07T10:08:02.591Z,9.82
2022-09-07T10:10:31.511Z,11.40
2022-09-07T10:12:59.922Z,11.63
2022-09-07T10:15:40.129Z,15.65
2022-09-07T10:18:22.486Z,19.77
2022-09-07T10:20:50.376Z,16.42
2022-09-07T10:23:25.300Z,21.08
2022-09-07T10:25:53.429Z,23.52
2022-09-07T10:28:24.497Z,20.90
2022-09-07T10:31:15.829Z,24.98
2022-09-07T10:37:01.784Z,26.80
2022-09-07T10:39:37.113Z,27.45
2022-09-07T10:42:24.735Z,23.42
2022-09-07T10:45:12.335Z,30.58
2022-09-07T10:47:59.326Z,28.73
2022-09-07T10:50:32.415Z,22.08
2022-09-07T10:53:42.099Z,22.48
2022-09-07T10:56:21.038Z,25.10
2022-09-07T10:59:10.767Z,21.73
2022-09-07T11:01:59.963Z,22.23
2022-09-07T11:04:47.550Z,22.05
2022-09-07T11:07:48.540Z,26.98
2022-09-07T11:10:35.578Z,25.17
2022-09-07T11:13:10.383Z,23.48
2022-09-07T11:15:44.800Z,29.80
2022-09-07T11:18:20.256Z,25.08
2022-09-07T11:20:55.378Z,20.80
2022-09-07T11:23:40.374Z,24.58
2022-09-07T11:26:19.561Z,18.85
2022-09-07T11:31:49.026Z,19.23
2022-09-07T11:34:24.651Z,18.67
2022-09-07T11:37:00.978Z,19.17
2022-09-07T11:39:35.834Z,23.23
2022-09-07T11:45:15.244Z,18.27
2022-09-07T11:47:50.893Z,18.70
2022-09-07T11:50:23.705Z,19.48
2022-09-07T11:52:57.832Z,17.95
2022-09-07T11:55:29.643Z,18.88
2022-09-07T11:58:30.261Z,16.98
2022-09-07T12:01:21.234Z,15.63
2022-09-07T12:04:16.600Z,16.45
2022-09-07T12:07:21.987Z,17.08
2022-09-07T12:10:14.468Z,14.82
2022-09-07T12:13:07.963Z,15.55
2022-09-07T12:15:53.018Z,14.02
2022-09-07T12:19:01.859Z,12.85
2022-09-07T12:21:42.392Z,10.73
2022-09-07T12:24:43.857Z,11.35
2022-09-07T12:27:39.696Z,11.02
2022-09-07T12:30:59.660Z,11.35
2022-09-07T12:33:33.304Z,13.65
2022-09-07T12:36:22.721Z,11.23
2022-09-07T12:39:20.767Z,11.40
2022-09-07T12:44:41.901Z,12.05
2022-09-07T12:47:36.618Z,12.35
2022-09-07T12:50:24.493Z,11.85
2022-09-07T12:53:25.590Z,11.77
2022-09-07T12:56:27.525Z,11.57
2022-09-07T12:59:34.590Z,10.82
2022-09-07T13:02:30.541Z,11.70
2022-09-07T13:05:19.500Z,11.00
2022-09-07T13:08:14.401Z,12.63
2022-09-07T13:10:43.659Z,12.50
2022-09-07T13:17:16.057Z,11.27
2022-09-07T13:20:16.926Z,11.60
2022-09-07T13:23:29.775Z,11.27
2022-09-07T13:26:00.306Z,14.40
2022-09-07T13:28:55.841Z,12.23
2022-09-07T13:31:48.470Z,13.65
2022-09-07T13:34:48.537Z,13.25
2022-09-07T13:37:21.902Z,13.38
2022-09-07T13:39:54.821Z,13.00
2022-09-07T13:42:28.355Z,14.15
2022-09-07T13:45:00.444Z,12.25
2022-09-07T13:47:51.915Z,12.57
2022-09-07T13:50:35.922Z,14.32
2022-09-07T13:53:32.658Z,13.43
2022-09-07T13:56:18.894Z,12.60
2022-09-07T13:58:49.775Z,10.90
2022-09-07T14:01:23.185Z,10.55
2022-09-07T14:03:55.107Z,12.35
2022-09-07T14:06:35.398Z,12.18
2022-09-07T14:09:13.401Z,11.13
2022-09-07T14:11:44.651Z,10.57
2022-09-07T14:14:18.856Z,11.10
2022-09-07T14:16:54.787Z,14.60
2022-09-07T14:19:26.061Z,11.50
2022-09-07T14:22:00.504Z,12.23
2022-09-07T14:24:38.037Z,10.00
2022-09-07T14:27:19.863Z,10.13
2022-09-07T14:29:48.318Z,10.52
2022-09-07T14:32:22.650Z,8.80
2022-09-07T14:34:52.130Z,10.98
2022-09-07T14:37:23.323Z,8.70
2022-09-07T14:39:52.849Z,8.82
2022-09-07T14:42:24.590Z,9.50
2022-09-07T14:45:18.348Z,10.48
2022-09-07T14:47:52.290Z,9.48
2022-09-07T14:50:24.492Z,10.23
2022-09-07T14:55:46.473Z,11.00
2022-09-07T14:58:24.589Z,10.80
2022-09-07T15:03:59.270Z,8.90
2022-09-07T15:09:35.209Z,10.20
2022-09-07T15:12:17.623Z,9.80
2022-09-07T15:14:47.834Z,12.05
2022-09-07T15:20:47.017Z,10.40
2022-09-07T15:23:19.523Z,11.82
2022-09-07T15:25:53.717Z,10.90
2022-09-07T15:34:13.056Z,9.27
2022-09-07T15:36:46.177Z,10.32
2022-09-07T15:39:21.256Z,9.75
2022-09-07T15:41:51.457Z,10.70
2022-09-07T15:44:24.419Z,10.15
2022-09-07T15:49:50.389Z,10.70
2022-09-07T15:52:20.643Z,10.68
2022-09-07T15:54:48.461Z,9.52
2022-09-07T16:00:06.856Z,10.25
2022-09-07T16:05:30.910Z,11.05
2022-09-07T16:11:05.231Z,11.25
2022-09-07T16:13:34.290Z,10.38
2022-09-07T16:16:06.008Z,10.82
2022-09-07T16:18:34.968Z,10.95
2022-09-07T16:21:11.894Z,10.50
2022-09-07T16:23:44.454Z,11.88
2022-09-07T16:26:13.609Z,10.23
2022-09-07T16:28:44.766Z,10.07
2022-09-07T16:31:16.593Z,9.07
2022-09-07T16:33:44.802Z,12.60
2022-09-07T16:36:17.694Z,8.60
2022-09-07T16:38:49.678Z,8.55
2022-09-07T16:41:20.464Z,7.50
2022-09-07T16:43:49.415Z,7.57
2022-09-07T16:46:20.532Z,9.10
2022-09-07T16:48:51.546Z,7.97
2022-09-07T16:51:22.581Z,9.65
2022-09-07T16:53:55.107Z,9.10
2022-09-07T16:56:27.051Z,9.27
2022-09-07T16:58:57.634Z,9.27
2022-09-07T17:01:28.380Z,10.48
2022-09-07T17:03:56.763Z,8.02
2022-09-07T17:06:27.685Z,11.27
2022-09-07T17:08:59.499Z,8.45
2022-09-07T17:11:32.439Z,7.18
2022-09-07T17:14:01.352Z,8.85
2022-09-07T17:16:32.291Z,9.45
2022-09-07T17:21:53.003Z,8.15
2022-09-07T17:24:22.425Z,10.02
2022-09-07T17:26:50.270Z,7.85
2022-09-07T17:29:18.283Z,8.95
2022-09-07T17:34:39.923Z,7.18
2022-09-07T17:37:08.332Z,9.43
2022-09-07T17:39:38.870Z,9.60
2022-09-07T17:42:07.507Z,9.02
2022-09-07T17:44:37.972Z,8.30
2022-09-07T17:47:10.702Z,8.70
2022-09-07T17:49:40.009Z,11.52
2022-09-07T17:52:07.893Z,10.35
2022-09-07T17:54:35.757Z,11.55
2022-09-07T17:57:05.748Z,13.10
2022-09-07T18:02:21.970Z,10.80
2022-09-07T18:04:50.218Z,10.73
2022-09-07T18:07:18.277Z,10.77
2022-09-07T18:09:48.089Z,11.43
2022-09-07T18:12:17.326Z,11.85
2022-09-07T18:14:45.172Z,10.35
2022-09-07T18:17:13.291Z,10.75
2022-09-07T18:19:42.669Z,11.48
2022-09-07T18:22:11.062Z,12.05
2022-09-07T18:24:40.342Z,11.30
2022-09-07T18:27:09.833Z,12.80
2022-09-07T18:29:39.196Z,14.02
2022-09-07T18:32:09.874Z,12.90
2022-09-07T18:34:41.152Z,15.52
2022-09-07T18:37:12.137Z,13.68
2022-09-07T18:39:41.390Z,15.00
2022-09-07T18:42:09.900Z,13.77
2022-09-07T18:47:29.322Z,14.25
2022-09-07T18:49:58.606Z,14.05
2022-09-07T18:55:18.370Z,14.32
2022-09-07T18:57:48.520Z,14.27
2022-09-07T19:00:18.151Z,14.38
2022-09-07T19:02:51.174Z,14.77
2022-09-07T19:08:08.494Z,15.13
2022-09-07T19:10:38.312Z,16.60
2022-09-07T19:13:06.520Z,17.63
2022-09-07T19:15:38.086Z,17.30
2022-09-07T19:18:09.481Z,16.45
2022-09-07T19:20:37.671Z,18.10
2022-09-07T19:23:07.071Z,16.60
2022-09-07T19:25:42.928Z,17.42
2022-09-07T19:28:11.175Z,21.17
2022-09-07T19:30:40.506Z,23.35
2022-09-07T19:33:12.064Z,17.48
2022-09-07T19:35:39.947Z,17.88
2022-09-07T19:38:08.214Z,18.38
2022-09-07T19:40:37.292Z,18.55
2022-09-07T19:43:06.576Z,17.08
2022-09-07T19:45:39.262Z,16.98
2022-09-07T19:48:09.197Z,16.77
2022-09-07T19:50:37.207Z,16.80
2022-09-07T19:53:05.693Z,17.10
2022-09-07T19:55:35.994Z,15.40
2022-09-07T19:58:04.033Z,16.15
2022-09-07T20:00:40.095Z,18.52
2022-09-07T20:03:10.837Z,16.45
2022-09-07T20:05:41.190Z,16.17
2022-09-07T20:08:09.466Z,14.98
2022-09-07T20:10:37.664Z,16.23
2022-09-07T20:13:08.118Z,17.85
2022-09-07T20:15:42.511Z,16.55
2022-09-07T20:18:12.293Z,17.20
2022-09-07T20:20:45.481Z,14.98
2022-09-07T20:23:15.126Z,14.43
2022-09-07T20:25:43.973Z,14.90
2022-09-07T20:28:13.950Z,14.93
2022-09-07T20:30:43.685Z,15.75
2022-09-07T20:33:13.047Z,15.73
2022-09-07T20:35:44.691Z,15.10
2022-09-07T20:38:12.528Z,15.63
2022-09-07T20:40:51.079Z,14.05
2022-09-07T20:43:19.190Z,14.15
2022-09-07T20:45:47.812Z,13.93
2022-09-07T20:48:17.107Z,15.93
2022-09-07T20:50:55.260Z,15.02
2022-09-07T20:53:24.001Z,13.57
2022-09-07T20:55:59.284Z,14.32
2022-09-07T21:00:55.062Z,16.13
2022-09-07T21:03:25.972Z,16.40
2022-09-07T21:05:54.831Z,14.95
2022-09-07T21:08:23.195Z,15.43
2022-09-07T21:10:51.454Z,14.57
2022-09-07T21:13:19.759Z,14.95
2022-09-07T21:15:47.616Z,15.02
2022-09-07T21:18:18.825Z,15.13
2022-09-07T21:21:18.929Z,14.90
2022-09-07T21:23:49.069Z,15.90
2022-09-07T21:26:21.183Z,15.45
2022-09-07T21:28:55.762Z,16.38
2022-09-07T21:31:26.518Z,16.70
2022-09-07T21:33:56.342Z,16.27
2022-09-07T21:36:26.835Z,17.55
2022-09-07T21:38:55.836Z,17.13
2022-09-07T21:41:25.650Z,18.25
2022-09-07T21:43:56.925Z,16.83
2022-09-07T21:46:26.510Z,17.67
2022-09-07T21:48:56.965Z,18.23
2022-09-07T21:51:28.776Z,17.80
2022-09-07T21:54:00.272Z,17.40
2022-09-07T21:56:31.090Z,18.55
2022-09-07T21:59:02.154Z,19.63
2022-09-07T22:01:32.189Z,18.38
2022-09-07T22:04:03.451Z,18.45
2022-09-07T22:06:33.940Z,19.38
2022-09-07T22:09:03.946Z,20.65
2022-09-07T22:11:32.465Z,18.73
2022-09-07T22:14:04.325Z,18.73
2022-09-07T22:16:34.281Z,19.35
2022-09-07T22:19:02.793Z,20.02
2022-09-07T22:21:33.996Z,18.95
2022-09-07T22:24:05.955Z,18.60
2022-09-07T22:26:42.371Z,17.95
2022-09-07T22:29:12.979Z,19.20
2022-09-07T22:31:44.641Z,17.92
2022-09-07T22:34:12.650Z,19.98
2022-09-07T22:36:44.321Z,19.02
2022-09-07T22:39:15.326Z,19.10
2022-09-07T22:41:45.249Z,18.45
2022-09-07T22:44:17.826Z,19.38
2022-09-07T22:46:48.085Z,17.92
2022-09-07T22:49:17.292Z,20.33
2022-09-07T22:51:48.053Z,18.38
2022-09-07T22:54:16.240Z,18.08
2022-09-07T22:56:44.172Z,17.88
2022-09-07T22:59:14.090Z,17.65
2022-09-07T23:01:42.503Z,18.05
2022-09-07T23:04:11.701Z,18.73
2022-09-07T23:06:43.147Z,18.33
2022-09-07T23:09:16.143Z,20.45
2022-09-07T23:11:45.512Z,20.75
2022-09-07T23:14:15.892Z,20.35
2022-09-07T23:16:45.090Z,23.23
2022-09-07T23:19:15.043Z,22.02
2022-09-07T23:21:44.130Z,21.63
2022-09-07T23:24:15.870Z,22.25
2022-09-07T23:26:46.632Z,22.02
2022-09-07T23:29:16.216Z,22.77
2022-09-07T23:31:46.962Z,23.92
2022-09-07T23:34:15.119Z,24.77
2022-09-07T23:36:43.049Z,22.98
2022-09-07T23:39:11.219Z,22.40
2022-09-07T23:41:41.158Z,22.90
2022-09-07T23:44:09.326Z,22.90
2022-09-07T23:46:37.727Z,22.38
2022-09-07T23:49:05.709Z,21.88
2022-09-07T23:51:33.730Z,23.85
2022-09-07T23:54:01.773Z,23.20
2022-09-07T23:56:32.645Z,24.08
2022-09-07T23:59:01.908Z,23.75
